sensor_id;sensor_type;location;lat;lon;timestamp;P1;durP1;ratioP1;P2;durP2;ratioP2
50128;SDS011;36026;45.478;9.224;2022-10-29T00:01:32;47.75;;;27.20;;
50128;SDS011;36026;45.478;9.224;2022-10-29T00:04:34;50.42;;;29.75;;
50128;SDS011;36026;45.478;9.224;2022-10-29T00:07:37;62.28;;;35.38;;
50128;SDS011;36026;45.478;9.224;2022-10-29T00:10:38;66.95;;;35.97;;
50128;SDS011;36026;45.478;9.224;2022-10-29T00:13:40;70.80;;;36.03;;
50128;SDS011;36026;45.478;9.224;2022-10-29T00:16:42;55.83;;;29.50;;
50128;SDS011;36026;45.478;9.224;2022-10-29T00:19:44;36.10;;;22.35;;
50128;SDS011;36026;45.478;9.224;2022-10-29T00:22:47;26.90;;;16.02;;
50128;SDS011;36026;45.478;9.224;2022-10-29T00:25:48;21.33;;;13.32;;
50128;SDS011;36026;45.478;9.224;2022-10-29T00:28:50;25.45;;;12.73;;
50128;SDS011;36026;45.478;9.224;2022-10-29T00:31:53;18.58;;;11.75;;
50128;SDS011;36026;45.478;9.224;2022-10-29T00:34:55;23.05;;;14.35;;
50128;SDS011;36026;45.478;9.224;2022-10-29T00:37:58;30.25;;;15.70;;
50128;SDS011;36026;45.478;9.224;2022-10-29T00:41:00;28.65;;;18.48;;
50128;SDS011;36026;45.478;9.224;2022-10-29T00:44:21;29.20;;;16.70;;
50128;SDS011;36026;45.478;9.224;2022-10-29T00:47:26;25.23;;;13.60;;
50128;SDS011;36026;45.478;9.224;2022-10-29T00:50:29;22.23;;;13.05;;
50128;SDS011;36026;45.478;9.224;2022-10-29T00:53:35;20.95;;;12.32;;
50128;SDS011;36026;45.478;9.224;2022-10-29T00:56:40;23.45;;;13.20;;
50128;SDS011;36026;45.478;9.224;2022-10-29T00:59:43;20.95;;;13.18;;
50128;SDS011;36026;45.478;9.224;2022-10-29T01:02:46;22.70;;;12.13;;
50128;SDS011;36026;45.478;9.224;2022-10-29T01:05:49;20.70;;;12.40;;
50128;SDS011;36026;45.478;9.224;2022-10-29T01:08:53;30.63;;;12.87;;
50128;SDS011;36026;45.478;9.224;2022-10-29T01:11:58;21.50;;;12.07;;
50128;SDS011;36026;45.478;9.224;2022-10-29T01:15:11;20.13;;;12.50;;
50128;SDS011;36026;45.478;9.224;2022-10-29T01:18:16;22.67;;;12.40;;
50128;SDS011;36026;45.478;9.224;2022-10-29T01:21:37;26.70;;;14.07;;
50128;SDS011;36026;45.478;9.224;2022-10-29T01:24:48;30.33;;;15.02;;
50128;SDS011;36026;45.478;9.224;2022-10-29T01:27:55;28.35;;;15.07;;
50128;SDS011;36026;45.478;9.224;2022-10-29T01:31:07;31.30;;;16.70;;
50128;SDS011;36026;45.478;9.224;2022-10-29T01:34:17;32.72;;;15.82;;
50128;SDS011;36026;45.478;9.224;2022-10-29T01:37:24;32.72;;;16.58;;
50128;SDS011;36026;45.478;9.224;2022-10-29T01:40:30;29.63;;;15.00;;
50128;SDS011;36026;45.478;9.224;2022-10-29T01:43:34;23.80;;;14.40;;
50128;SDS011;36026;45.478;9.224;2022-10-29T01:46:41;24.98;;;13.88;;
50128;SDS011;36026;45.478;9.224;2022-10-29T01:49:46;26.30;;;13.68;;
50128;SDS011;36026;45.478;9.224;2022-10-29T01:52:49;22.25;;;12.70;;
50128;SDS011;36026;45.478;9.224;2022-10-29T01:55:52;21.53;;;11.33;;
50128;SDS011;36026;45.478;9.224;2022-10-29T01:58:54;19.65;;;10.40;;
50128;SDS011;36026;45.478;9.224;2022-10-29T02:02:03;19.60;;;10.13;;
50128;SDS011;36026;45.478;9.224;2022-10-29T02:05:10;19.35;;;10.85;;
50128;SDS011;36026;45.478;9.224;2022-10-29T02:08:20;19.40;;;10.93;;
50128;SDS011;36026;45.478;9.224;2022-10-29T02:11:26;23.15;;;11.27;;
50128;SDS011;36026;45.478;9.224;2022-10-29T02:14:32;25.95;;;11.05;;
50128;SDS011;36026;45.478;9.224;2022-10-29T02:17:38;17.92;;;10.32;;
50128;SDS011;36026;45.478;9.224;2022-10-29T02:20:40;22.65;;;10.70;;
50128;SDS011;36026;45.478;9.224;2022-10-29T02:23:41;24.92;;;11.10;;
50128;SDS011;36026;45.478;9.224;2022-10-29T02:26:43;23.02;;;10.30;;
50128;SDS011;36026;45.478;9.224;2022-10-29T02:29:45;26.13;;;11.40;;
50128;SDS011;36026;45.478;9.224;2022-10-29T02:32:48;27.25;;;10.60;;
50128;SDS011;36026;45.478;9.224;2022-10-29T02:35:49;20.43;;;10.27;;
50128;SDS011;36026;45.478;9.224;2022-10-29T02:38:51;16.52;;;10.07;;
50128;SDS011;36026;45.478;9.224;2022-10-29T02:41:52;17.98;;;10.52;;
50128;SDS011;36026;45.478;9.224;2022-10-29T02:44:54;18.05;;;9.35;;
50128;SDS011;36026;45.478;9.224;2022-10-29T02:47:57;19.13;;;9.90;;
50128;SDS011;36026;45.478;9.224;2022-10-29T02:50:59;17.57;;;10.00;;
50128;SDS011;36026;45.478;9.224;2022-10-29T02:54:00;16.83;;;9.90;;
50128;SDS011;36026;45.478;9.224;2022-10-29T02:57:02;15.50;;;10.00;;
50128;SDS011;36026;45.478;9.224;2022-10-29T03:00:04;14.60;;;8.95;;
50128;SDS011;36026;45.478;9.224;2022-10-29T03:03:07;16.88;;;9.88;;
50128;SDS011;36026;45.478;9.224;2022-10-29T03:06:12;20.47;;;9.50;;
50128;SDS011;36026;45.478;9.224;2022-10-29T03:09:14;17.38;;;9.32;;
50128;SDS011;36026;45.478;9.224;2022-10-29T03:12:16;14.82;;;9.60;;
50128;SDS011;36026;45.478;9.224;2022-10-29T03:15:17;14.52;;;9.23;;
50128;SDS011;36026;45.478;9.224;2022-10-29T03:18:20;14.27;;;9.30;;
50128;SDS011;36026;45.478;9.224;2022-10-29T03:21:22;14.63;;;8.53;;
50128;SDS011;36026;45.478;9.224;2022-10-29T03:24:24;14.57;;;9.13;;
50128;SDS011;36026;45.478;9.224;2022-10-29T03:27:25;15.60;;;8.65;;
50128;SDS011;36026;45.478;9.224;2022-10-29T03:30:27;14.18;;;8.68;;
50128;SDS011;36026;45.478;9.224;2022-10-29T03:33:30;17.83;;;9.88;;
50128;SDS011;36026;45.478;9.224;2022-10-29T03:36:31;16.97;;;9.07;;
50128;SDS011;36026;45.478;9.224;2022-10-29T03:39:33;14.43;;;9.52;;
50128;SDS011;36026;45.478;9.224;2022-10-29T03:42:34;16.10;;;8.93;;
50128;SDS011;36026;45.478;9.224;2022-10-29T03:45:37;15.93;;;9.13;;
50128;SDS011;36026;45.478;9.224;2022-10-29T03:48:40;18.30;;;9.73;;
50128;SDS011;36026;45.478;9.224;2022-10-29T03:51:41;18.37;;;9.17;;
50128;SDS011;36026;45.478;9.224;2022-10-29T03:54:43;14.05;;;8.75;;
50128;SDS011;36026;45.478;9.224;2022-10-29T03:57:45;13.98;;;8.27;;
50128;SDS011;36026;45.478;9.224;2022-10-29T04:00:51;18.08;;;9.00;;
50128;SDS011;36026;45.478;9.224;2022-10-29T04:03:55;19.60;;;9.90;;
50128;SDS011;36026;45.478;9.224;2022-10-29T04:06:58;24.90;;;8.93;;
50128;SDS011;36026;45.478;9.224;2022-10-29T04:10:00;35.25;;;10.65;;
50128;SDS011;36026;45.478;9.224;2022-10-29T04:13:01;30.95;;;9.93;;
50128;SDS011;36026;45.478;9.224;2022-10-29T04:16:03;33.28;;;9.80;;
50128;SDS011;36026;45.478;9.224;2022-10-29T04:19:06;26.67;;;9.88;;
50128;SDS011;36026;45.478;9.224;2022-10-29T04:22:08;25.73;;;9.57;;
50128;SDS011;36026;45.478;9.224;2022-10-29T04:25:10;22.02;;;9.23;;
50128;SDS011;36026;45.478;9.224;2022-10-29T04:28:11;21.92;;;9.35;;
50128;SDS011;36026;45.478;9.224;2022-10-29T04:31:13;21.50;;;9.30;;
50128;SDS011;36026;45.478;9.224;2022-10-29T04:34:16;22.00;;;8.68;;
50128;SDS011;36026;45.478;9.224;2022-10-29T04:37:17;15.83;;;8.10;;
50128;SDS011;36026;45.478;9.224;2022-10-29T04:40:19;12.63;;;8.05;;
50128;SDS011;36026;45.478;9.224;2022-10-29T04:43:21;12.85;;;8.40;;
50128;SDS011;36026;45.478;9.224;2022-10-29T04:46:22;18.58;;;8.63;;
50128;SDS011;36026;45.478;9.224;2022-10-29T04:49:25;14.00;;;7.97;;
50128;SDS011;36026;45.478;9.224;2022-10-29T04:52:27;13.03;;;8.33;;
50128;SDS011;36026;45.478;9.224;2022-10-29T04:55:29;15.32;;;8.60;;
50128;SDS011;36026;45.478;9.224;2022-10-29T04:58:30;14.80;;;8.55;;
50128;SDS011;36026;45.478;9.224;2022-10-29T05:01:32;12.20;;;8.07;;
50128;SDS011;36026;45.478;9.224;2022-10-29T05:04:35;13.77;;;7.88;;
50128;SDS011;36026;45.478;9.224;2022-10-29T05:07:36;22.93;;;9.50;;
50128;SDS011;36026;45.478;9.224;2022-10-29T05:10:38;26.50;;;10.05;;
50128;SDS011;36026;45.478;9.224;2022-10-29T05:13:40;40.25;;;10.63;;
50128;SDS011;36026;45.478;9.224;2022-10-29T05:16:42;60.05;;;12.20;;
50128;SDS011;36026;45.478;9.224;2022-10-29T05:19:45;32.17;;;11.27;;
50128;SDS011;36026;45.478;9.224;2022-10-29T05:22:47;26.70;;;9.55;;
50128;SDS011;36026;45.478;9.224;2022-10-29T05:25:48;18.35;;;8.73;;
50128;SDS011;36026;45.478;9.224;2022-10-29T05:28:51;15.25;;;9.13;;
50128;SDS011;36026;45.478;9.224;2022-10-29T05:31:52;17.95;;;9.07;;
50128;SDS011;36026;45.478;9.224;2022-10-29T05:34:55;17.15;;;8.95;;
50128;SDS011;36026;45.478;9.224;2022-10-29T05:37:57;19.53;;;9.23;;
50128;SDS011;36026;45.478;9.224;2022-10-29T05:40:59;16.33;;;9.10;;
50128;SDS011;36026;45.478;9.224;2022-10-29T05:44:01;20.27;;;9.65;;
50128;SDS011;36026;45.478;9.224;2022-10-29T05:47:04;19.60;;;8.90;;
50128;SDS011;36026;45.478;9.224;2022-10-29T05:50:08;13.52;;;8.55;;
50128;SDS011;36026;45.478;9.224;2022-10-29T05:56:12;17.20;;;8.75;;
50128;SDS011;36026;45.478;9.224;2022-10-29T05:59:13;18.48;;;9.20;;
50128;SDS011;36026;45.478;9.224;2022-10-29T06:02:15;16.65;;;9.30;;
50128;SDS011;36026;45.478;9.224;2022-10-29T06:05:18;19.75;;;9.40;;
50128;SDS011;36026;45.478;9.224;2022-10-29T06:08:19;14.35;;;9.45;;
50128;SDS011;36026;45.478;9.224;2022-10-29T06:11:21;17.92;;;8.77;;
50128;SDS011;36026;45.478;9.224;2022-10-29T06:14:23;15.15;;;8.98;;
50128;SDS011;36026;45.478;9.224;2022-10-29T06:17:24;16.17;;;9.32;;
50128;SDS011;36026;45.478;9.224;2022-10-29T06:20:27;15.25;;;8.93;;
50128;SDS011;36026;45.478;9.224;2022-10-29T06:23:29;16.17;;;8.73;;
50128;SDS011;36026;45.478;9.224;2022-10-29T06:26:30;13.35;;;9.20;;
50128;SDS011;36026;45.478;9.224;2022-10-29T06:29:32;15.43;;;8.60;;
50128;SDS011;36026;45.478;9.224;2022-10-29T06:32:34;16.63;;;8.25;;
50128;SDS011;36026;45.478;9.224;2022-10-29T06:35:37;19.77;;;8.95;;
50128;SDS011;36026;45.478;9.224;2022-10-29T06:38:38;22.37;;;8.80;;
50128;SDS011;36026;45.478;9.224;2022-10-29T06:41:40;20.23;;;8.20;;
50128;SDS011;36026;45.478;9.224;2022-10-29T06:44:42;20.42;;;9.25;;
50128;SDS011;36026;45.478;9.224;2022-10-29T06:47:44;15.23;;;8.40;;
50128;SDS011;36026;45.478;9.224;2022-10-29T06:50:47;17.15;;;9.18;;
50128;SDS011;36026;45.478;9.224;2022-10-29T06:53:48;17.00;;;8.70;;
50128;SDS011;36026;45.478;9.224;2022-10-29T06:56:50;16.88;;;9.25;;
50128;SDS011;36026;45.478;9.224;2022-10-29T06:59:51;16.77;;;8.57;;
50128;SDS011;36026;45.478;9.224;2022-10-29T07:02:53;17.05;;;9.38;;
50128;SDS011;36026;45.478;9.224;2022-10-29T07:05:57;18.55;;;9.05;;
50128;SDS011;36026;45.478;9.224;2022-10-29T07:08:59;18.67;;;9.35;;
50128;SDS011;36026;45.478;9.224;2022-10-29T07:12:01;15.10;;;8.68;;
50128;SDS011;36026;45.478;9.224;2022-10-29T07:15:02;15.88;;;8.32;;
50128;SDS011;36026;45.478;9.224;2022-10-29T07:18:05;16.05;;;9.05;;
50128;SDS011;36026;45.478;9.224;2022-10-29T07:21:09;15.77;;;8.63;;
50128;SDS011;36026;45.478;9.224;2022-10-29T07:24:10;17.33;;;9.05;;
50128;SDS011;36026;45.478;9.224;2022-10-29T07:27:12;18.83;;;9.23;;
50128;SDS011;36026;45.478;9.224;2022-10-29T07:30:13;14.82;;;8.90;;
50128;SDS011;36026;45.478;9.224;2022-10-29T07:33:16;16.38;;;9.48;;
50128;SDS011;36026;45.478;9.224;2022-10-29T07:36:19;14.98;;;9.10;;
50128;SDS011;36026;45.478;9.224;2022-10-29T07:39:20;17.02;;;8.57;;
50128;SDS011;36026;45.478;9.224;2022-10-29T07:42:22;17.20;;;9.27;;
50128;SDS011;36026;45.478;9.224;2022-10-29T07:45:24;14.45;;;9.00;;
50128;SDS011;36026;45.478;9.224;2022-10-29T07:48:26;15.60;;;8.85;;
50128;SDS011;36026;45.478;9.224;2022-10-29T07:51:29;16.08;;;9.50;;
50128;SDS011;36026;45.478;9.224;2022-10-29T07:54:30;15.57;;;10.27;;
50128;SDS011;36026;45.478;9.224;2022-10-29T07:57:32;15.27;;;9.30;;
50128;SDS011;36026;45.478;9.224;2022-10-29T08:00:34;18.52;;;10.15;;
50128;SDS011;36026;45.478;9.224;2022-10-29T08:03:36;21.50;;;10.73;;
50128;SDS011;36026;45.478;9.224;2022-10-29T08:06:39;15.18;;;8.93;;
50128;SDS011;36026;45.478;9.224;2022-10-29T08:09:41;19.27;;;10.30;;
50128;SDS011;36026;45.478;9.224;2022-10-29T08:12:47;15.65;;;10.18;;
50128;SDS011;36026;45.478;9.224;2022-10-29T08:15:49;18.67;;;10.45;;
50128;SDS011;36026;45.478;9.224;2022-10-29T08:18:51;16.02;;;9.80;;
50128;SDS011;36026;45.478;9.224;2022-10-29T08:21:54;16.92;;;10.00;;
50128;SDS011;36026;45.478;9.224;2022-10-29T08:24:56;19.90;;;11.15;;
50128;SDS011;36026;45.478;9.224;2022-10-29T08:27:58;15.70;;;9.95;;
50128;SDS011;36026;45.478;9.224;2022-10-29T08:31:00;17.38;;;9.88;;
50128;SDS011;36026;45.478;9.224;2022-10-29T08:34:02;17.00;;;10.25;;
50128;SDS011;36026;45.478;9.224;2022-10-29T08:37:04;13.73;;;10.10;;
50128;SDS011;36026;45.478;9.224;2022-10-29T08:40:07;16.17;;;9.60;;
50128;SDS011;36026;45.478;9.224;2022-10-29T08:46:58;15.63;;;9.18;;
50128;SDS011;36026;45.478;9.224;2022-10-29T08:50:05;17.58;;;10.20;;
50128;SDS011;36026;45.478;9.224;2022-10-29T08:53:18;16.85;;;9.57;;
50128;SDS011;36026;45.478;9.224;2022-10-29T08:56:24;14.75;;;9.77;;
50128;SDS011;36026;45.478;9.224;2022-10-29T08:59:28;14.18;;;8.93;;
50128;SDS011;36026;45.478;9.224;2022-10-29T09:02:33;18.25;;;9.30;;
50128;SDS011;36026;45.478;9.224;2022-10-29T09:05:36;25.77;;;10.88;;
50128;SDS011;36026;45.478;9.224;2022-10-29T09:09:09;17.42;;;9.63;;
50128;SDS011;36026;45.478;9.224;2022-10-29T09:12:28;17.42;;;9.30;;
50128;SDS011;36026;45.478;9.224;2022-10-29T09:15:43;13.88;;;8.15;;
50128;SDS011;36026;45.478;9.224;2022-10-29T09:22:23;13.07;;;7.47;;
50128;SDS011;36026;45.478;9.224;2022-10-29T09:25:32;13.52;;;7.53;;
50128;SDS011;36026;45.478;9.224;2022-10-29T09:28:40;9.60;;;6.70;;
50128;SDS011;36026;45.478;9.224;2022-10-29T09:31:46;10.00;;;6.57;;
50128;SDS011;36026;45.478;9.224;2022-10-29T09:34:51;11.15;;;6.65;;
50128;SDS011;36026;45.478;9.224;2022-10-29T09:37:55;12.57;;;6.18;;
50128;SDS011;36026;45.478;9.224;2022-10-29T09:41:00;9.10;;;6.50;;
50128;SDS011;36026;45.478;9.224;2022-10-29T09:44:05;10.95;;;6.55;;
50128;SDS011;36026;45.478;9.224;2022-10-29T09:47:13;9.27;;;5.85;;
50128;SDS011;36026;45.478;9.224;2022-10-29T09:50:22;9.70;;;6.15;;
50128;SDS011;36026;45.478;9.224;2022-10-29T09:53:27;12.02;;;6.55;;
50128;SDS011;36026;45.478;9.224;2022-10-29T09:56:30;9.90;;;5.97;;
50128;SDS011;36026;45.478;9.224;2022-10-29T09:59:32;8.25;;;6.05;;
50128;SDS011;36026;45.478;9.224;2022-10-29T10:02:36;9.25;;;6.07;;
50128;SDS011;36026;45.478;9.224;2022-10-29T10:09:02;9.73;;;5.60;;
50128;SDS011;36026;45.478;9.224;2022-10-29T10:12:06;12.07;;;6.03;;
50128;SDS011;36026;45.478;9.224;2022-10-29T10:15:16;7.22;;;5.28;;
50128;SDS011;36026;45.478;9.224;2022-10-29T10:18:20;8.30;;;5.57;;
50128;SDS011;36026;45.478;9.224;2022-10-29T10:21:23;9.68;;;5.32;;
50128;SDS011;36026;45.478;9.224;2022-10-29T10:24:28;8.48;;;5.68;;
50128;SDS011;36026;45.478;9.224;2022-10-29T10:27:32;8.43;;;5.93;;
50128;SDS011;36026;45.478;9.224;2022-10-29T10:30:33;9.95;;;5.50;;
50128;SDS011;36026;45.478;9.224;2022-10-29T10:33:36;9.07;;;5.78;;
50128;SDS011;36026;45.478;9.224;2022-10-29T10:36:46;8.88;;;5.63;;
50128;SDS011;36026;45.478;9.224;2022-10-29T10:39:50;9.27;;;6.38;;
50128;SDS011;36026;45.478;9.224;2022-10-29T10:42:55;9.32;;;4.90;;
50128;SDS011;36026;45.478;9.224;2022-10-29T10:45:58;8.02;;;5.10;;
50128;SDS011;36026;45.478;9.224;2022-10-29T10:49:02;10.30;;;5.80;;
50128;SDS011;36026;45.478;9.224;2022-10-29T10:52:05;6.72;;;5.28;;
50128;SDS011;36026;45.478;9.224;2022-10-29T10:55:16;9.77;;;5.53;;
50128;SDS011;36026;45.478;9.224;2022-10-29T10:58:25;9.02;;;4.95;;
50128;SDS011;36026;45.478;9.224;2022-10-29T11:01:30;8.27;;;4.78;;
50128;SDS011;36026;45.478;9.224;2022-10-29T11:04:36;7.63;;;4.65;;
50128;SDS011;36026;45.478;9.224;2022-10-29T11:07:41;6.97;;;4.30;;
50128;SDS011;36026;45.478;9.224;2022-10-29T11:10:47;7.75;;;4.47;;
50128;SDS011;36026;45.478;9.224;2022-10-29T11:13:53;10.07;;;4.72;;
50128;SDS011;36026;45.478;9.224;2022-10-29T11:16:56;8.13;;;4.50;;
50128;SDS011;36026;45.478;9.224;2022-10-29T11:19:58;6.78;;;4.07;;
50128;SDS011;36026;45.478;9.224;2022-10-29T11:23:07;8.07;;;4.85;;
50128;SDS011;36026;45.478;9.224;2022-10-29T11:26:21;7.40;;;4.57;;
50128;SDS011;36026;45.478;9.224;2022-10-29T11:29:31;5.28;;;4.13;;
50128;SDS011;36026;45.478;9.224;2022-10-29T11:32:40;7.15;;;4.75;;
50128;SDS011;36026;45.478;9.224;2022-10-29T11:35:48;7.07;;;4.13;;
50128;SDS011;36026;45.478;9.224;2022-10-29T11:38:52;9.50;;;4.90;;
50128;SDS011;36026;45.478;9.224;2022-10-29T11:41:58;9.20;;;4.78;;
50128;SDS011;36026;45.478;9.224;2022-10-29T11:45:02;7.93;;;4.93;;
50128;SDS011;36026;45.478;9.224;2022-10-29T11:48:08;7.45;;;4.38;;
50128;SDS011;36026;45.478;9.224;2022-10-29T11:51:17;6.90;;;4.38;;
50128;SDS011;36026;45.478;9.224;2022-10-29T11:54:28;7.82;;;4.43;;
50128;SDS011;36026;45.478;9.224;2022-10-29T11:57:44;7.65;;;4.43;;
50128;SDS011;36026;45.478;9.224;2022-10-29T12:00:54;7.55;;;4.75;;
50128;SDS011;36026;45.478;9.224;2022-10-29T12:04:07;8.43;;;4.20;;
50128;SDS011;36026;45.478;9.224;2022-10-29T12:07:21;6.32;;;3.80;;
50128;SDS011;36026;45.478;9.224;2022-10-29T12:10:37;4.72;;;3.22;;
50128;SDS011;36026;45.478;9.224;2022-10-29T12:13:46;6.75;;;3.20;;
50128;SDS011;36026;45.478;9.224;2022-10-29T12:16:56;7.63;;;3.67;;
50128;SDS011;36026;45.478;9.224;2022-10-29T12:20:03;5.32;;;3.50;;
50128;SDS011;36026;45.478;9.224;2022-10-29T12:23:14;7.72;;;3.80;;
50128;SDS011;36026;45.478;9.224;2022-10-29T12:26:25;6.82;;;3.47;;
50128;SDS011;36026;45.478;9.224;2022-10-29T12:29:31;5.47;;;3.40;;
50128;SDS011;36026;45.478;9.224;2022-10-29T12:32:44;6.60;;;3.20;;
50128;SDS011;36026;45.478;9.224;2022-10-29T12:35:51;6.43;;;3.50;;
50128;SDS011;36026;45.478;9.224;2022-10-29T12:38:58;9.93;;;3.53;;
50128;SDS011;36026;45.478;9.224;2022-10-29T12:45:05;5.90;;;2.97;;
50128;SDS011;36026;45.478;9.224;2022-10-29T12:48:17;7.72;;;3.50;;
50128;SDS011;36026;45.478;9.224;2022-10-29T12:51:23;8.45;;;3.13;;
50128;SDS011;36026;45.478;9.224;2022-10-29T12:54:30;4.43;;;3.22;;
50128;SDS011;36026;45.478;9.224;2022-10-29T12:57:35;4.97;;;2.72;;
50128;SDS011;36026;45.478;9.224;2022-10-29T13:00:43;8.90;;;2.95;;
50128;SDS011;36026;45.478;9.224;2022-10-29T13:07:20;5.65;;;2.70;;
50128;SDS011;36026;45.478;9.224;2022-10-29T13:13:51;7.45;;;3.10;;
50128;SDS011;36026;45.478;9.224;2022-10-29T13:16:54;5.80;;;2.63;;
50128;SDS011;36026;45.478;9.224;2022-10-29T13:23:00;7.22;;;2.83;;
50128;SDS011;36026;45.478;9.224;2022-10-29T13:26:02;6.78;;;3.03;;
50128;SDS011;36026;45.478;9.224;2022-10-29T13:29:05;5.38;;;2.30;;
50128;SDS011;36026;45.478;9.224;2022-10-29T13:32:07;6.18;;;2.13;;
50128;SDS011;36026;45.478;9.224;2022-10-29T13:38:42;3.92;;;2.20;;
50128;SDS011;36026;45.478;9.224;2022-10-29T13:41:48;7.55;;;2.70;;
50128;SDS011;36026;45.478;9.224;2022-10-29T13:44:50;6.20;;;2.60;;
50128;SDS011;36026;45.478;9.224;2022-10-29T13:47:53;4.88;;;2.58;;
50128;SDS011;36026;45.478;9.224;2022-10-29T13:50:58;4.97;;;2.67;;
50128;SDS011;36026;45.478;9.224;2022-10-29T13:54:05;6.80;;;3.05;;
50128;SDS011;36026;45.478;9.224;2022-10-29T13:57:14;5.47;;;3.42;;
50128;SDS011;36026;45.478;9.224;2022-10-29T14:00:19;5.00;;;3.03;;
50128;SDS011;36026;45.478;9.224;2022-10-29T14:06:27;5.95;;;3.00;;
50128;SDS011;36026;45.478;9.224;2022-10-29T14:09:33;7.05;;;3.28;;
50128;SDS011;36026;45.478;9.224;2022-10-29T14:12:37;6.72;;;3.42;;
50128;SDS011;36026;45.478;9.224;2022-10-29T14:15:41;4.82;;;2.92;;
50128;SDS011;36026;45.478;9.224;2022-10-29T14:19:11;6.78;;;2.80;;
50128;SDS011;36026;45.478;9.224;2022-10-29T14:22:15;5.90;;;3.17;;
50128;SDS011;36026;45.478;9.224;2022-10-29T14:25:30;7.15;;;3.28;;
50128;SDS011;36026;45.478;9.224;2022-10-29T14:28:34;6.72;;;3.80;;
50128;SDS011;36026;45.478;9.224;2022-10-29T14:31:36;5.95;;;3.00;;
50128;SDS011;36026;45.478;9.224;2022-10-29T14:34:37;6.82;;;3.17;;
50128;SDS011;36026;45.478;9.224;2022-10-29T14:37:41;4.27;;;3.10;;
50128;SDS011;36026;45.478;9.224;2022-10-29T14:40:43;5.60;;;3.38;;
50128;SDS011;36026;45.478;9.224;2022-10-29T14:43:48;7.25;;;3.55;;
50128;SDS011;36026;45.478;9.224;2022-10-29T14:46:54;8.93;;;3.72;;
50128;SDS011;36026;45.478;9.224;2022-10-29T14:50:00;8.60;;;3.70;;
50128;SDS011;36026;45.478;9.224;2022-10-29T14:53:05;8.32;;;3.88;;
50128;SDS011;36026;45.478;9.224;2022-10-29T14:56:17;5.70;;;3.90;;
50128;SDS011;36026;45.478;9.224;2022-10-29T14:59:21;8.73;;;4.07;;
50128;SDS011;36026;45.478;9.224;2022-10-29T15:02:23;8.52;;;3.47;;
50128;SDS011;36026;45.478;9.224;2022-10-29T15:05:26;6.27;;;4.23;;
50128;SDS011;36026;45.478;9.224;2022-10-29T15:08:30;6.40;;;3.92;;
50128;SDS011;36026;45.478;9.224;2022-10-29T15:11:39;6.30;;;3.30;;
50128;SDS011;36026;45.478;9.224;2022-10-29T15:14:44;9.90;;;4.10;;
50128;SDS011;36026;45.478;9.224;2022-10-29T15:17:48;7.93;;;3.70;;
50128;SDS011;36026;45.478;9.224;2022-10-29T15:20:52;10.85;;;4.03;;
50128;SDS011;36026;45.478;9.224;2022-10-29T15:26:58;6.70;;;3.58;;
50128;SDS011;36026;45.478;9.224;2022-10-29T15:30:02;9.13;;;3.83;;
50128;SDS011;36026;45.478;9.224;2022-10-29T15:33:05;5.28;;;3.13;;
50128;SDS011;36026;45.478;9.224;2022-10-29T15:36:07;6.47;;;3.60;;
50128;SDS011;36026;45.478;9.224;2022-10-29T15:39:18;6.97;;;3.90;;
50128;SDS011;36026;45.478;9.224;2022-10-29T15:42:26;8.57;;;3.85;;
50128;SDS011;36026;45.478;9.224;2022-10-29T15:45:29;6.90;;;4.05;;
50128;SDS011;36026;45.478;9.224;2022-10-29T15:48:34;9.73;;;4.15;;
50128;SDS011;36026;45.478;9.224;2022-10-29T15:51:37;7.97;;;3.55;;
50128;SDS011;36026;45.478;9.224;2022-10-29T15:54:40;46.53;;;33.28;;
50128;SDS011;36026;45.478;9.224;2022-10-29T15:57:42;90.10;;;57.83;;
50128;SDS011;36026;45.478;9.224;2022-10-29T16:00:44;74.95;;;47.80;;
50128;SDS011;36026;45.478;9.224;2022-10-29T16:03:46;24.48;;;15.95;;
50128;SDS011;36026;45.478;9.224;2022-10-29T16:06:47;13.13;;;6.40;;
50128;SDS011;36026;45.478;9.224;2022-10-29T16:09:51;9.77;;;4.43;;
50128;SDS011;36026;45.478;9.224;2022-10-29T16:12:54;8.65;;;4.15;;
50128;SDS011;36026;45.478;9.224;2022-10-29T16:15:55;8.88;;;5.05;;
50128;SDS011;36026;45.478;9.224;2022-10-29T16:18:57;11.23;;;5.45;;
50128;SDS011;36026;45.478;9.224;2022-10-29T16:21:58;11.05;;;4.25;;
50128;SDS011;36026;45.478;9.224;2022-10-29T16:25:02;11.18;;;4.72;;
50128;SDS011;36026;45.478;9.224;2022-10-29T16:28:04;12.05;;;4.82;;
50128;SDS011;36026;45.478;9.224;2022-10-29T16:31:10;12.02;;;5.03;;
50128;SDS011;36026;45.478;9.224;2022-10-29T16:34:17;11.63;;;5.20;;
50128;SDS011;36026;45.478;9.224;2022-10-29T16:37:19;9.75;;;5.10;;
50128;SDS011;36026;45.478;9.224;2022-10-29T16:40:23;10.70;;;5.32;;
50128;SDS011;36026;45.478;9.224;2022-10-29T16:43:26;13.30;;;5.90;;
50128;SDS011;36026;45.478;9.224;2022-10-29T16:46:28;10.73;;;6.18;;
50128;SDS011;36026;45.478;9.224;2022-10-29T16:49:29;13.40;;;6.13;;
50128;SDS011;36026;45.478;9.224;2022-10-29T16:52:31;10.48;;;6.70;;
50128;SDS011;36026;45.478;9.224;2022-10-29T16:55:35;13.40;;;6.50;;
50128;SDS011;36026;45.478;9.224;2022-10-29T16:58:38;14.85;;;6.63;;
50128;SDS011;36026;45.478;9.224;2022-10-29T17:01:39;10.40;;;6.20;;
50128;SDS011;36026;45.478;9.224;2022-10-29T17:04:41;14.17;;;6.73;;
50128;SDS011;36026;45.478;9.224;2022-10-29T17:07:43;11.25;;;6.57;;
50128;SDS011;36026;45.478;9.224;2022-10-29T17:10:46;9.98;;;6.45;;
50128;SDS011;36026;45.478;9.224;2022-10-29T17:13:48;13.73;;;6.47;;
50128;SDS011;36026;45.478;9.224;2022-10-29T17:16:49;13.55;;;6.88;;
50128;SDS011;36026;45.478;9.224;2022-10-29T17:19:51;16.58;;;7.97;;
50128;SDS011;36026;45.478;9.224;2022-10-29T17:22:53;13.07;;;8.00;;
50128;SDS011;36026;45.478;9.224;2022-10-29T17:25:56;17.10;;;8.50;;
50128;SDS011;36026;45.478;9.224;2022-10-29T17:28:58;18.95;;;9.00;;
50128;SDS011;36026;45.478;9.224;2022-10-29T17:32:00;16.30;;;7.78;;
50128;SDS011;36026;45.478;9.224;2022-10-29T17:35:02;19.83;;;9.40;;
50128;SDS011;36026;45.478;9.224;2022-10-29T17:38:03;21.08;;;9.90;;
50128;SDS011;36026;45.478;9.224;2022-10-29T17:41:06;18.55;;;9.43;;
50128;SDS011;36026;45.478;9.224;2022-10-29T17:44:08;17.23;;;9.23;;
50128;SDS011;36026;45.478;9.224;2022-10-29T17:47:09;19.45;;;8.70;;
50128;SDS011;36026;45.478;9.224;2022-10-29T17:50:11;17.40;;;10.02;;
50128;SDS011;36026;45.478;9.224;2022-10-29T17:53:13;23.60;;;14.60;;
50128;SDS011;36026;45.478;9.224;2022-10-29T17:56:15;30.23;;;17.80;;
50128;SDS011;36026;45.478;9.224;2022-10-29T17:59:17;44.13;;;24.92;;
50128;SDS011;36026;45.478;9.224;2022-10-29T18:02:19;45.28;;;25.58;;
50128;SDS011;36026;45.478;9.224;2022-10-29T18:05:20;34.83;;;20.88;;
50128;SDS011;36026;45.478;9.224;2022-10-29T18:08:22;28.48;;;17.33;;
50128;SDS011;36026;45.478;9.224;2022-10-29T18:11:25;27.02;;;13.55;;
50128;SDS011;36026;45.478;9.224;2022-10-29T18:14:27;22.77;;;11.48;;
50128;SDS011;36026;45.478;9.224;2022-10-29T18:17:29;21.00;;;11.27;;
50128;SDS011;36026;45.478;9.224;2022-10-29T18:20:31;17.30;;;10.60;;
50128;SDS011;36026;45.478;9.224;2022-10-29T18:23:33;19.83;;;10.05;;
50128;SDS011;36026;45.478;9.224;2022-10-29T18:26:36;18.23;;;10.13;;
50128;SDS011;36026;45.478;9.224;2022-10-29T18:29:37;19.08;;;11.15;;
50128;SDS011;36026;45.478;9.224;2022-10-29T18:32:39;22.30;;;11.50;;
50128;SDS011;36026;45.478;9.224;2022-10-29T18:35:40;21.20;;;10.73;;
50128;SDS011;36026;45.478;9.224;2022-10-29T18:38:42;21.13;;;11.10;;
50128;SDS011;36026;45.478;9.224;2022-10-29T18:41:45;22.40;;;10.93;;
50128;SDS011;36026;45.478;9.224;2022-10-29T18:44:46;21.92;;;11.68;;
50128;SDS011;36026;45.478;9.224;2022-10-29T18:47:48;18.92;;;10.68;;
50128;SDS011;36026;45.478;9.224;2022-10-29T18:50:50;18.38;;;11.10;;